sensor_id;sensor_type;location;lat;lon;timestamp;pressure;altitude;pressure_sealevel;temperature;humidity
13476;BME280;6810;63.824;20.288;2023-03-01T00:01:15;102226.31;;;1.72;100.00
13476;BME280;6810;63.824;20.288;2023-03-01T00:03:43;102216.69;;;1.66;100.00
13476;BME280;6810;63.824;20.288;2023-03-01T00:06:10;102216.69;;;1.66;100.00
13476;BME280;6810;63.824;20.288;2023-03-01T00:08:37;102216.69;;;1.68;100.00
13476;BME280;6810;63.824;20.288;2023-03-01T00:11:17;102214.91;;;1.67;100.00
13476;BME280;6810;63.824;20.288;2023-03-01T00:13:46;102213.16;;;1.66;100.00
13476;BME280;6810;63.824;20.288;2023-03-01T00:16:16;102201.78;;;1.64;100.00
13476;BME280;6810;63.824;20.288;2023-03-01T00:18:44;102143.91;;;1.29;100.00
13476;BME280;6810;63.824;20.288;2023-03-01T00:21:11;102199.13;;;1.62;100.00
13476;BME280;6810;63.824;20.288;2023-03-01T00:23:40;102201.75;;;1.62;100.00
13476;BME280;6810;63.824;20.288;2023-03-01T00:26:12;102193.88;;;1.58;100.00
13476;BME280;6810;63.824;20.288;2023-03-01T00:28:40;102200.03;;;1.60;100.00
13476;BME280;6810;63.824;20.288;2023-03-01T00:31:19;102204.38;;;1.59;100.00
13476;BME280;6810;63.824;20.288;2023-03-01T00:33:47;102196.50;;;1.59;100.00
13476;BME280;6810;63.824;20.288;2023-03-01T00:36:15;102191.25;;;1.58;100.00
13476;BME280;6810;63.824;20.288;2023-03-01T00:38:44;102189.50;;;1.57;100.00
13476;BME280;6810;63.824;20.288;2023-03-01T00:41:14;102183.38;;;1.56;100.00
13476;BME280;6810;63.824;20.288;2023-03-01T00:43:41;102179.00;;;1.55;100.00
13476;BME280;6810;63.824;20.288;2023-03-01T00:46:15;102181.63;;;1.55;100.00
13476;BME280;6810;63.824;20.288;2023-03-01T00:48:43;102175.47;;;1.53;100.00
13476;BME280;6810;63.824;20.288;2023-03-01T00:51:11;102175.47;;;1.55;100.00
13476;BME280;6810;63.824;20.288;2023-03-01T00:53:39;102160.59;;;1.52;100.00
13476;BME280;6810;63.824;20.288;2023-03-01T00:56:08;102143.06;;;1.45;100.00
13476;BME280;6810;63.824;20.288;2023-03-01T00:58:35;102156.19;;;1.51;100.00
13476;BME280;6810;63.824;20.288;2023-03-01T01:01:31;102155.34;;;1.49;100.00
13476;BME280;6810;63.824;20.288;2023-03-01T01:04:02;102106.25;;;1.23;100.00
13476;BME280;6810;63.824;20.288;2023-03-01T01:06:33;102141.31;;;1.49;100.00
13476;BME280;6810;63.824;20.288;2023-03-01T01:09:01;102145.69;;;1.51;100.00
13476;BME280;6810;63.824;20.288;2023-03-01T01:11:29;102144.84;;;1.52;100.00
13476;BME280;6810;63.824;20.288;2023-03-01T01:13:58;102148.31;;;1.54;100.00
13476;BME280;6810;63.824;20.288;2023-03-01T01:16:27;102132.56;;;1.54;100.00
13476;BME280;6810;63.824;20.288;2023-03-01T01:18:56;102126.44;;;1.51;100.00
13476;BME280;6810;63.824;20.288;2023-03-01T01:21:24;102124.69;;;1.56;100.00
13476;BME280;6810;63.824;20.288;2023-03-01T01:23:51;102128.19;;;1.56;100.00
13476;BME280;6810;63.824;20.288;2023-03-01T01:26:23;102114.16;;;1.53;100.00
13476;BME280;6810;63.824;20.288;2023-03-01T01:28:51;102087.03;;;1.43;100.00
13476;BME280;6810;63.824;20.288;2023-03-01T01:31:19;102101.03;;;1.59;100.00
13476;BME280;6810;63.824;20.288;2023-03-01T01:33:46;102094.94;;;1.57;100.00
13476;BME280;6810;63.824;20.288;2023-03-01T01:36:13;102100.19;;;1.61;100.00
13476;BME280;6810;63.824;20.288;2023-03-01T01:38:40;102094.94;;;1.63;100.00
13476;BME280;6810;63.824;20.288;2023-03-01T01:41:09;102055.53;;;1.45;100.00
13476;BME280;6810;63.824;20.288;2023-03-01T01:43:46;102085.31;;;1.66;100.00
13476;BME280;6810;63.824;20.288;2023-03-01T01:46:32;102078.28;;;1.67;100.00
13476;BME280;6810;63.824;20.288;2023-03-01T01:49:07;102082.66;;;1.69;100.00
13476;BME280;6810;63.824;20.288;2023-03-01T01:51:43;102077.41;;;1.71;100.00
13476;BME280;6810;63.824;20.288;2023-03-01T01:54:23;102075.63;;;1.71;100.00
13476;BME280;6810;63.824;20.288;2023-03-01T01:57:03;102081.78;;;1.73;100.00
13476;BME280;6810;63.824;20.288;2023-03-01T01:59:33;102059.88;;;1.74;100.00
13476;BME280;6810;63.824;20.288;2023-03-01T02:02:03;102067.75;;;1.77;100.00
13476;BME280;6810;63.824;20.288;2023-03-01T02:04:32;102057.22;;;1.79;100.00
13476;BME280;6810;63.824;20.288;2023-03-01T02:07:13;102041.47;;;1.80;100.00
13476;BME280;6810;63.824;20.288;2023-03-01T02:09:43;102027.47;;;1.72;100.00
13476;BME280;6810;63.824;20.288;2023-03-01T02:12:13;102036.19;;;1.85;100.00
13476;BME280;6810;63.824;20.288;2023-03-01T02:14:40;102008.19;;;1.72;100.00
13476;BME280;6810;63.824;20.288;2023-03-01T02:17:07;102035.34;;;1.89;100.00
13476;BME280;6810;63.824;20.288;2023-03-01T02:22:40;102002.03;;;1.77;100.00
13476;BME280;6810;63.824;20.288;2023-03-01T02:30:34;102015.16;;;1.96;100.00
13476;BME280;6810;63.824;20.288;2023-03-01T02:33:03;102010.75;;;1.99;100.00
13476;BME280;6810;63.824;20.288;2023-03-01T02:35:37;102004.66;;;1.93;100.00
13476;BME280;6810;63.824;20.288;2023-03-01T02:38:07;102008.13;;;2.02;100.00
13476;BME280;6810;63.824;20.288;2023-03-01T02:40:37;101988.88;;;1.91;100.00
13476;BME280;6810;63.824;20.288;2023-03-01T02:43:07;102017.78;;;2.06;100.00
13476;BME280;6810;63.824;20.288;2023-03-01T02:45:35;102010.72;;;2.07;100.00
13476;BME280;6810;63.824;20.288;2023-03-01T02:48:02;102004.63;;;2.09;100.00
13476;BME280;6810;63.824;20.288;2023-03-01T02:55:27;101991.44;;;2.12;100.00
13476;BME280;6810;63.824;20.288;2023-03-01T02:57:56;102007.22;;;2.15;100.00
13476;BME280;6810;63.824;20.288;2023-03-01T03:00:26;101995.81;;;2.18;100.00
13476;BME280;6810;63.824;20.288;2023-03-01T03:02:55;101996.69;;;2.18;100.00
13476;BME280;6810;63.824;20.288;2023-03-01T03:05:27;101987.00;;;2.20;100.00
13476;BME280;6810;63.824;20.288;2023-03-01T03:07:58;101989.63;;;2.23;100.00
13476;BME280;6810;63.824;20.288;2023-03-01T03:10:32;101934.53;;;1.96;100.00
13476;BME280;6810;63.824;20.288;2023-03-01T03:13:03;101981.75;;;2.26;100.00
13476;BME280;6810;63.824;20.288;2023-03-01T03:15:31;101978.25;;;2.27;100.00
13476;BME280;6810;63.824;20.288;2023-03-01T03:17:58;101926.63;;;2.04;100.00
13476;BME280;6810;63.824;20.288;2023-03-01T03:20:27;101979.97;;;2.31;100.00
13476;BME280;6810;63.824;20.288;2023-03-01T03:22:56;101952.81;;;2.22;100.00
13476;BME280;6810;63.824;20.288;2023-03-01T03:25:27;101969.44;;;2.34;100.00
13476;BME280;6810;63.824;20.288;2023-03-01T03:27:55;101961.56;;;2.28;100.00
13476;BME280;6810;63.824;20.288;2023-03-01T03:30:29;101969.41;;;2.36;100.00
13476;BME280;6810;63.824;20.288;2023-03-01T03:32:57;101963.28;;;2.37;100.00
13476;BME280;6810;63.824;20.288;2023-03-01T03:35:30;101964.13;;;2.39;100.00
13476;BME280;6810;63.824;20.288;2023-03-01T03:38:04;101960.66;;;2.40;100.00
13476;BME280;6810;63.824;20.288;2023-03-01T03:40:40;101958.00;;;2.41;100.00
13476;BME280;6810;63.824;20.288;2023-03-01T03:43:14;101961.47;;;2.43;100.00
13476;BME280;6810;63.824;20.288;2023-03-01T03:45:41;101956.22;;;2.43;100.00
13476;BME280;6810;63.824;20.288;2023-03-01T03:48:09;101955.34;;;2.46;100.00
13476;BME280;6810;63.824;20.288;2023-03-01T03:50:40;101950.94;;;2.46;100.00
13476;BME280;6810;63.824;20.288;2023-03-01T03:53:11;101960.59;;;2.47;100.00
13476;BME280;6810;63.824;20.288;2023-03-01T03:55:39;101966.72;;;2.49;100.00
13476;BME280;6810;63.824;20.288;2023-03-01T03:58:08;101957.97;;;2.47;100.00
13476;BME280;6810;63.824;20.288;2023-03-01T04:00:42;101908.13;;;2.20;100.00
13476;BME280;6810;63.824;20.288;2023-03-01T04:03:11;101943.97;;;2.42;100.00
13476;BME280;6810;63.824;20.288;2023-03-01T04:05:39;101939.59;;;2.43;100.00
13476;BME280;6810;63.824;20.288;2023-03-01T04:08:08;101961.41;;;2.54;100.00
13476;BME280;6810;63.824;20.288;2023-03-01T04:10:40;101957.94;;;2.55;100.00
13476;BME280;6810;63.824;20.288;2023-03-01T04:13:12;101962.31;;;2.54;100.00
13476;BME280;6810;63.824;20.288;2023-03-01T04:15:39;101950.03;;;2.55;100.00
13476;BME280;6810;63.824;20.288;2023-03-01T04:18:07;101951.81;;;2.51;100.00
13476;BME280;6810;63.824;20.288;2023-03-01T04:20:35;101964.06;;;2.54;100.00
13476;BME280;6810;63.824;20.288;2023-03-01T04:23:17;101951.78;;;2.53;100.00
13476;BME280;6810;63.824;20.288;2023-03-01T04:25:51;101958.78;;;2.52;100.00
13476;BME280;6810;63.824;20.288;2023-03-01T04:28:33;101870.50;;;2.09;100.00
13476;BME280;6810;63.824;20.288;2023-03-01T04:31:06;101946.53;;;2.51;100.00
13476;BME280;6810;63.824;20.288;2023-03-01T04:33:41;101924.69;;;2.37;100.00
13476;BME280;6810;63.824;20.288;2023-03-01T04:36:09;101940.41;;;2.49;100.00
13476;BME280;6810;63.824;20.288;2023-03-01T04:38:37;101944.81;;;2.50;100.00
13476;BME280;6810;63.824;20.288;2023-03-01T04:41:09;101936.94;;;2.47;100.00
13476;BME280;6810;63.824;20.288;2023-03-01T04:43:37;101934.31;;;2.46;100.00
13476;BME280;6810;63.824;20.288;2023-03-01T04:46:07;101937.78;;;2.46;100.00
13476;BME280;6810;63.824;20.288;2023-03-01T04:48:40;101937.81;;;2.43;100.00
13476;BME280;6810;63.824;20.288;2023-03-01T04:51:07;101936.06;;;2.44;100.00
13476;BME280;6810;63.824;20.288;2023-03-01T04:53:35;101938.69;;;2.42;100.00
13476;BME280;6810;63.824;20.288;2023-03-01T04:56:05;101936.06;;;2.41;100.00
13476;BME280;6810;63.824;20.288;2023-03-01T04:58:33;101873.16;;;2.08;100.00
13476;BME280;6810;63.824;20.288;2023-03-01T05:01:00;101924.69;;;2.36;100.00
13476;BME280;6810;63.824;20.288;2023-03-01T05:03:27;101929.97;;;2.34;100.00
13476;BME280;6810;63.824;20.288;2023-03-01T05:05:58;101928.25;;;2.32;100.00
13476;BME280;6810;63.824;20.288;2023-03-01T05:08:26;101925.63;;;2.30;100.00
13476;BME280;6810;63.824;20.288;2023-03-01T05:10:53;101916.88;;;2.22;100.00
13476;BME280;6810;63.824;20.288;2023-03-01T05:13:21;101931.78;;;2.25;100.00
13476;BME280;6810;63.824;20.288;2023-03-01T05:15:53;101929.16;;;2.22;100.00
13476;BME280;6810;63.824;20.288;2023-03-01T05:18:21;101894.22;;;2.03;100.00
13476;BME280;6810;63.824;20.288;2023-03-01T05:21:01;101922.16;;;2.18;100.00
13476;BME280;6810;63.824;20.288;2023-03-01T05:23:32;101922.19;;;2.15;100.00
13476;BME280;6810;63.824;20.288;2023-03-01T05:26:00;101918.66;;;2.14;100.00
13476;BME280;6810;63.824;20.288;2023-03-01T05:28:27;101915.19;;;2.12;100.00
13476;BME280;6810;63.824;20.288;2023-03-01T05:30:55;101916.06;;;2.10;100.00
13476;BME280;6810;63.824;20.288;2023-03-01T05:33:23;101915.22;;;2.09;100.00
13476;BME280;6810;63.824;20.288;2023-03-01T05:35:51;101915.22;;;2.09;100.00
13476;BME280;6810;63.824;20.288;2023-03-01T05:38:20;101909.94;;;2.09;100.00
13476;BME280;6810;63.824;20.288;2023-03-01T05:40:48;101909.06;;;2.10;100.00
13476;BME280;6810;63.824;20.288;2023-03-01T05:43:16;101916.06;;;2.11;100.00
13476;BME280;6810;63.824;20.288;2023-03-01T05:45:44;101905.53;;;2.11;100.00
13476;BME280;6810;63.824;20.288;2023-03-01T05:48:12;101899.44;;;2.08;100.00
13476;BME280;6810;63.824;20.288;2023-03-01T05:50:42;101907.31;;;2.14;100.00
13476;BME280;6810;63.824;20.288;2023-03-01T05:53:11;101899.41;;;2.17;100.00
13476;BME280;6810;63.824;20.288;2023-03-01T05:55:39;101906.38;;;2.19;100.00
13476;BME280;6810;63.824;20.288;2023-03-01T05:58:12;101904.63;;;2.21;100.00
13476;BME280;6810;63.824;20.288;2023-03-01T06:00:42;101893.25;;;2.16;100.00
13476;BME280;6810;63.824;20.288;2023-03-01T06:03:11;101911.59;;;2.28;100.00
13476;BME280;6810;63.824;20.288;2023-03-01T06:05:40;101885.38;;;2.13;100.00
13476;BME280;6810;63.824;20.288;2023-03-01T06:08:09;101910.72;;;2.32;100.00
13476;BME280;6810;63.824;20.288;2023-03-01T06:10:36;101922.06;;;2.36;100.00
13476;BME280;6810;63.824;20.288;2023-03-01T06:13:04;101862.63;;;2.11;100.00
13476;BME280;6810;63.824;20.288;2023-03-01T06:15:31;101923.81;;;2.41;100.00
13476;BME280;6810;63.824;20.288;2023-03-01T06:17:58;101923.78;;;2.44;100.00
13476;BME280;6810;63.824;20.288;2023-03-01T06:20:27;101914.09;;;2.48;100.00
13476;BME280;6810;63.824;20.288;2023-03-01T06:22:55;101919.34;;;2.49;100.00
13476;BME280;6810;63.824;20.288;2023-03-01T06:25:23;101914.94;;;2.53;100.00
13476;BME280;6810;63.824;20.288;2023-03-01T06:27:51;101923.72;;;2.55;100.00
13476;BME280;6810;63.824;20.288;2023-03-01T06:30:20;101916.69;;;2.58;100.00
13476;BME280;6810;63.824;20.288;2023-03-01T06:32:48;101916.69;;;2.60;100.00
13476;BME280;6810;63.824;20.288;2023-03-01T06:35:16;101924.53;;;2.64;100.00
13476;BME280;6810;63.824;20.288;2023-03-01T06:37:46;101915.75;;;2.67;100.00
13476;BME280;6810;63.824;20.288;2023-03-01T06:40:14;101919.22;;;2.72;100.00
13476;BME280;6810;63.824;20.288;2023-03-01T06:42:43;101913.06;;;2.71;100.00
13476;BME280;6810;63.824;20.288;2023-03-01T06:45:11;101900.84;;;2.64;100.00
13476;BME280;6810;63.824;20.288;2023-03-01T06:47:38;101925.28;;;2.80;100.00
13476;BME280;6810;63.824;20.288;2023-03-01T06:50:05;101921.78;;;2.82;100.00
13476;BME280;6810;63.824;20.288;2023-03-01T06:52:33;101919.09;;;2.87;100.00
13476;BME280;6810;63.824;20.288;2023-03-01T06:55:00;101926.09;;;2.88;100.00
13476;BME280;6810;63.824;20.288;2023-03-01T06:57:27;101926.97;;;2.90;100.00
13476;BME280;6810;63.824;20.288;2023-03-01T06:59:54;101920.81;;;2.91;100.00
13476;BME280;6810;63.824;20.288;2023-03-01T07:02:22;101906.81;;;2.84;100.00
13476;BME280;6810;63.824;20.288;2023-03-01T07:04:50;101900.72;;;2.81;100.00
13476;BME280;6810;63.824;20.288;2023-03-01T07:07:17;101900.75;;;2.79;100.00
13476;BME280;6810;63.824;20.288;2023-03-01T07:09:45;101865.75;;;2.65;100.00
13476;BME280;6810;63.824;20.288;2023-03-01T07:12:12;101933.00;;;3.04;100.00
13476;BME280;6810;63.824;20.288;2023-03-01T07:14:40;101932.09;;;3.06;100.00
13476;BME280;6810;63.824;20.288;2023-03-01T07:17:07;101918.91;;;3.09;100.00
13476;BME280;6810;63.824;20.288;2023-03-01T07:19:34;101924.16;;;3.11;100.00
13476;BME280;6810;63.824;20.288;2023-03-01T07:22:01;101868.22;;;2.83;100.00
13476;BME280;6810;63.824;20.288;2023-03-01T07:24:28;101880.44;;;2.95;100.00
13476;BME280;6810;63.824;20.288;2023-03-01T07:26:55;101917.06;;;3.19;100.00
13476;BME280;6810;63.824;20.288;2023-03-01T07:29:22;101924.06;;;3.23;100.00
13476;BME280;6810;63.824;20.288;2023-03-01T07:31:49;101911.75;;;3.25;100.00
13476;BME280;6810;63.824;20.288;2023-03-01T07:34:16;101908.22;;;3.24;100.00
13476;BME280;6810;63.824;20.288;2023-03-01T07:36:43;101909.94;;;3.30;100.00
13476;BME280;6810;63.824;20.288;2023-03-01T07:39:12;101902.88;;;3.32;100.00
13476;BME280;6810;63.824;20.288;2023-03-01T07:41:38;101888.06;;;3.22;100.00
13476;BME280;6810;63.824;20.288;2023-03-01T07:44:06;101902.84;;;3.36;100.00
13476;BME280;6810;63.824;20.288;2023-03-01T07:46:33;101900.16;;;3.39;100.00
13476;BME280;6810;63.824;20.288;2023-03-01T07:49:00;101875.66;;;3.33;100.00
13476;BME280;6810;63.824;20.288;2023-03-01T07:51:27;101893.09;;;3.46;100.00
13476;BME280;6810;63.824;20.288;2023-03-01T07:53:54;101884.31;;;3.44;100.00
13476;BME280;6810;63.824;20.288;2023-03-01T07:56:21;101886.00;;;3.51;100.00
13476;BME280;6810;63.824;20.288;2023-03-01T07:58:48;101873.72;;;3.48;100.00
13476;BME280;6810;63.824;20.288;2023-03-01T08:01:19;101888.59;;;3.55;100.00
13476;BME280;6810;63.824;20.288;2023-03-01T08:03:47;101878.00;;;3.58;100.00
13476;BME280;6810;63.824;20.288;2023-03-01T08:06:15;101884.13;;;3.62;100.00
13476;BME280;6810;63.824;20.288;2023-03-01T08:08:43;101874.47;;;3.59;100.00
13476;BME280;6810;63.824;20.288;2023-03-01T08:11:11;101885.81;;;3.68;100.00
13476;BME280;6810;63.824;20.288;2023-03-01T08:13:39;101890.16;;;3.72;100.00
13476;BME280;6810;63.824;20.288;2023-03-01T08:16:09;101895.38;;;3.75;100.00
13476;BME280;6810;63.824;20.288;2023-03-01T08:18:37;101894.47;;;3.79;100.00
13476;BME280;6810;63.824;20.288;2023-03-01T08:21:15;101892.66;;;3.82;100.00
13476;BME280;6810;63.824;20.288;2023-03-01T08:23:43;101885.59;;;3.86;100.00
13476;BME280;6810;63.824;20.288;2023-03-01T08:26:16;101842.78;;;3.64;100.00
13476;BME280;6810;63.824;20.288;2023-03-01T08:28:44;101895.19;;;3.93;100.00
13476;BME280;6810;63.824;20.288;2023-03-01T08:33:49;101877.53;;;3.98;100.00
13476;BME280;6810;63.824;20.288;2023-03-01T08:36:27;101881.88;;;4.03;100.00
13476;BME280;6810;63.824;20.288;2023-03-01T08:38:55;101877.41;;;4.07;100.00
13476;BME280;6810;63.824;20.288;2023-03-01T08:41:22;101868.69;;;4.03;100.00
13476;BME280;6810;63.824;20.288;2023-03-01T08:43:49;101879.09;;;4.14;100.00
13476;BME280;6810;63.824;20.288;2023-03-01T08:46:17;101888.69;;;4.18;100.00
13476;BME280;6810;63.824;20.288;2023-03-01T08:48:44;101891.28;;;4.21;100.00
13476;BME280;6810;63.824;20.288;2023-03-01T08:51:18;101878.94;;;4.24;100.00
13476;BME280;6810;63.824;20.288;2023-03-01T08:54:09;101864.75;;;4.30;100.00
13476;BME280;6810;63.824;20.288;2023-03-01T08:56:57;101865.59;;;4.33;100.00
13476;BME280;6810;63.824;20.288;2023-03-01T08:59:43;101863.81;;;4.37;100.00
13476;BME280;6810;63.824;20.288;2023-03-01T09:02:30;101866.41;;;4.40;100.00
13476;BME280;6810;63.824;20.288;2023-03-01T09:05:17;101875.06;;;4.46;100.00
13476;BME280;6810;63.824;20.288;2023-03-01T09:08:04;101863.63;;;4.49;100.00
13476;BME280;6810;63.824;20.288;2023-03-01T09:10:51;101866.16;;;4.55;100.00
13476;BME280;6810;63.824;20.288;2023-03-01T09:13:39;101843.34;;;4.52;100.00
13476;BME280;6810;63.824;20.288;2023-03-01T09:16:26;101854.56;;;4.63;100.00
13476;BME280;6810;63.824;20.288;2023-03-01T09:19:13;101846.56;;;4.69;100.00
13476;BME280;6810;63.824;20.288;2023-03-01T09:22:00;101857.94;;;4.73;100.00
13476;BME280;6810;63.824;20.288;2023-03-01T09:24:47;101863.13;;;4.79;100.00
13476;BME280;6810;63.824;20.288;2023-03-01T09:27:34;101862.19;;;4.83;100.00
13476;BME280;6810;63.824;20.288;2023-03-01T09:30:21;101847.28;;;4.79;100.00
13476;BME280;6810;63.824;20.288;2023-03-01T09:33:09;101864.66;;;4.93;100.00
13476;BME280;6810;63.824;20.288;2023-03-01T09:36:02;101870.72;;;4.98;100.00
13476;BME280;6810;63.824;20.288;2023-03-01T09:38:50;101879.47;;;5.02;100.00
13476;BME280;6810;63.824;20.288;2023-03-01T09:41:50;101878.47;;;5.07;100.00
13476;BME280;6810;63.824;20.288;2023-03-01T09:44:55;101878.41;;;5.13;100.00
13476;BME280;6810;63.824;20.288;2023-03-01T09:47:45;101875.69;;;5.18;100.00
13476;BME280;6810;63.824;20.288;2023-03-01T09:50:39;101877.31;;;5.23;100.00
13476;BME280;6810;63.824;20.288;2023-03-01T09:53:32;101844.78;;;5.20;100.00
13476;BME280;6810;63.824;20.288;2023-03-01T09:56:24;101865.53;;;5.41;100.00
13476;BME280;6810;63.824;20.288;2023-03-01T09:59:30;101859.25;;;5.48;100.00
13476;BME280;6810;63.824;20.288;2023-03-01T10:02:30;101826.88;;;5.35;100.00
13476;BME280;6810;63.824;20.288;2023-03-01T10:05:44;101874.75;;;5.66;100.00
13476;BME280;6810;63.824;20.288;2023-03-01T10:08:50;101861.38;;;5.74;100.00
13476;BME280;6810;63.824;20.288;2023-03-01T10:11:45;101881.44;;;5.87;100.00
13476;BME280;6810;63.824;20.288;2023-03-01T10:14:42;101874.16;;;5.96;100.00
13476;BME280;6810;63.824;20.288;2023-03-01T10:17:37;101882.72;;;6.07;100.00
13476;BME280;6810;63.824;20.288;2023-03-01T10:20:28;101875.50;;;6.15;100.00
13476;BME280;6810;63.824;20.288;2023-03-01T10:23:16;101880.63;;;6.23;100.00
13476;BME280;6810;63.824;20.288;2023-03-01T10:26:09;101869.00;;;6.30;100.00
13476;BME280;6810;63.824;20.288;2023-03-01T10:29:05;101818.38;;;6.05;100.00
13476;BME280;6810;63.824;20.288;2023-03-01T10:31:54;101861.69;;;6.41;100.00
13476;BME280;6810;63.824;20.288;2023-03-01T10:34:41;101882.66;;;6.50;100.00
13476;BME280;6810;63.824;20.288;2023-03-01T10:37:27;101858.78;;;6.51;100.00
13476;BME280;6810;63.824;20.288;2023-03-01T10:40:15;101855.06;;;6.60;100.00
13476;BME280;6810;63.824;20.288;2023-03-01T10:43:04;101855.72;;;6.68;100.00
13476;BME280;6810;63.824;20.288;2023-03-01T10:45:51;101867.09;;;6.73;100.00
13476;BME280;6810;63.824;20.288;2023-03-01T10:48:38;101859.00;;;6.79;100.00
13476;BME280;6810;63.824;20.288;2023-03-01T10:51:25;101877.38;;;6.85;100.00
13476;BME280;6810;63.824;20.288;2023-03-01T10:54:29;101876.34;;;6.92;100.00
13476;BME280;6810;63.824;20.288;2023-03-01T10:57:35;101856.66;;;7.02;100.00
13476;BME280;6810;63.824;20.288;2023-03-01T11:00:25;101856.44;;;7.09;100.00
13476;BME280;6810;63.824;20.288;2023-03-01T11:03:15;101855.41;;;7.17;100.00
13476;BME280;6810;63.824;20.288;2023-03-01T11:06:04;101858.69;;;7.25;100.00
13476;BME280;6810;63.824;20.288;2023-03-01T11:08:51;101862.03;;;7.33;100.00
13476;BME280;6810;63.824;20.288;2023-03-01T11:11:38;101855.69;;;7.38;100.00
13476;BME280;6810;63.824;20.288;2023-03-01T11:14:27;101860.78;;;7.46;100.00
13476;BME280;6810;63.824;20.288;2023-03-01T11:17:29;101871.91;;;7.58;100.00
13476;BME280;6810;63.824;20.288;2023-03-01T11:20:31;101872.53;;;7.68;100.00
13476;BME280;6810;63.824;20.288;2023-03-01T11:23:20;101860.19;;;7.67;100.00
13476;BME280;6810;63.824;20.288;2023-03-01T11:26:08;101872.97;;;7.83;100.00
13476;BME280;6810;63.824;20.288;2023-03-01T11:28:58;101857.28;;;7.76;100.00
13476;BME280;6810;63.824;20.288;2023-03-01T11:31:49;101890.16;;;8.01;100.00
13476;BME280;6810;63.824;20.288;2023-03-01T11:34:44;101868.72;;;8.08;100.00
13476;BME280;6810;63.824;20.288;2023-03-01T11:37:46;101887.06;;;8.16;100.00
13476;BME280;6810;63.824;20.288;2023-03-01T11:40:41;101886.81;;;8.25;100.00
13476;BME280;6810;63.824;20.288;2023-03-01T11:46:57;101876.56;;;8.42;100.00
13476;BME280;6810;63.824;20.288;2023-03-01T11:59:35;101874.72;;;8.71;100.00
13476;BME280;6810;63.824;20.288;2023-03-01T12:18:10;101869.56;;;9.19;99.93
13476;BME280;6810;63.824;20.288;2023-03-01T12:45:30;101896.38;;;9.64;98.59
13476;BME280;6810;63.824;20.288;2023-03-01T12:48:38;101896.25;;;9.67;97.77
13476;BME280;6810;63.824;20.288;2023-03-01T12:51:30;101901.53;;;9.68;97.43
13476;BME280;6810;63.824;20.288;2023-03-01T12:54:27;101900.66;;;9.68;97.33
13476;BME280;6810;63.824;20.288;2023-03-01T12:57:40;101900.47;;;9.72;97.99
13476;BME280;6810;63.824;20.288;2023-03-01T13:04:12;101883.53;;;9.75;97.42
13476;BME280;6810;63.824;20.288;2023-03-01T13:10:16;101894.09;;;9.78;96.88
13476;BME280;6810;63.824;20.288;2023-03-01T13:13:19;101894.09;;;9.78;97.45
13476;BME280;6810;63.824;20.288;2023-03-01T13:19:27;101890.53;;;9.77;96.76
13476;BME280;6810;63.824;20.288;2023-03-01T13:22:35;101847.13;;;9.51;96.67
13476;BME280;6810;63.824;20.288;2023-03-01T13:25:22;101884.66;;;9.68;96.61
13476;BME280;6810;63.824;20.288;2023-03-01T13:34:40;101887.00;;;9.77;96.80
13476;BME280;6810;63.824;20.288;2023-03-01T13:37:30;101834.88;;;9.47;95.39
13476;BME280;6810;63.824;20.288;2023-03-01T13:43:28;101887.66;;;9.83;96.78
13476;BME280;6810;63.824;20.288;2023-03-01T13:46:20;101891.16;;;9.85;95.17
13476;BME280;6810;63.824;20.288;2023-03-01T13:49:16;101878.56;;;9.89;96.19
13476;BME280;6810;63.824;20.288;2023-03-01T13:52:37;101885.59;;;9.91;96.52
13476;BME280;6810;63.824;20.288;2023-03-01T13:55:45;101876.66;;;9.92;95.41
13476;BME280;6810;63.824;20.288;2023-03-01T13:58:33;101881.75;;;9.98;94.17
13476;BME280;6810;63.824;20.288;2023-03-01T14:01:35;101881.69;;;10.00;94.31
13476;BME280;6810;63.824;20.288;2023-03-01T14:04:32;101879.84;;;10.02;94.47
13476;BME280;6810;63.824;20.288;2023-03-01T14:07:21;101872.75;;;10.02;94.14
13476;BME280;6810;63.824;20.288;2023-03-01T14:10:12;101881.75;;;9.98;93.49
13476;BME280;6810;63.824;20.288;2023-03-01T14:22:04;101879.31;;;9.92;83.76
13476;BME280;6810;63.824;20.288;2023-03-01T14:25:03;101868.72;;;9.91;90.27
13476;BME280;6810;63.824;20.288;2023-03-01T14:31:31;101865.25;;;9.89;92.97
13476;BME280;6810;63.824;20.288;2023-03-01T14:34:22;101833.19;;;9.69;91.19
13476;BME280;6810;63.824;20.288;2023-03-01T14:37:22;101865.47;;;9.83;92.21
13476;BME280;6810;63.824;20.288;2023-03-01T14:40:24;101868.25;;;9.80;91.79
13476;BME280;6810;63.824;20.288;2023-03-01T14:43:16;101857.78;;;9.75;90.95
13476;BME280;6810;63.824;20.288;2023-03-01T14:46:17;101856.91;;;9.75;92.20
13476;BME280;6810;63.824;20.288;2023-03-01T14:49:09;101859.69;;;9.72;90.75
13476;BME280;6810;63.824;20.288;2023-03-01T14:52:05;101853.78;;;9.64;91.62
13476;BME280;6810;63.824;20.288;2023-03-01T14:54:53;101862.59;;;9.66;89.72
13476;BME280;6810;63.824;20.288;2023-03-01T14:57:44;101868.88;;;9.63;90.01
13476;BME280;6810;63.824;20.288;2023-03-01T15:00:32;101857.44;;;9.60;87.49
13476;BME280;6810;63.824;20.288;2023-03-01T15:03:33;101857.56;;;9.57;86.71
13476;BME280;6810;63.824;20.288;2023-03-01T15:06:22;101866.59;;;9.53;85.78
13476;BME280;6810;63.824;20.288;2023-03-01T15:09:14;101857.84;;;9.49;84.41
13476;BME280;6810;63.824;20.288;2023-03-01T15:15:21;101850.13;;;9.42;83.63
13476;BME280;6810;63.824;20.288;2023-03-01T15:18:18;101840.69;;;9.33;83.38
13476;BME280;6810;63.824;20.288;2023-03-01T15:21:26;101838.03;;;9.33;81.04
13476;BME280;6810;63.824;20.288;2023-03-01T15:24:17;101862.91;;;9.32;81.03
13476;BME280;6810;63.824;20.288;2023-03-01T15:27:17;101801.09;;;9.00;81.80
13476;BME280;6810;63.824;20.288;2023-03-01T15:30:05;101861.47;;;9.22;80.72